sensor_id;sensor_type;location;lat;lon;timestamp;pressure;altitude;pressure_sealevel;temperature;humidity
30598;BME280;17365;48.878;8.334;2022-10-16T00:00:32;99820.28;;;17.31;100.00
30598;BME280;17365;48.878;8.334;2022-10-16T00:02:57;99833.31;;;17.32;100.00
30598;BME280;17365;48.878;8.334;2022-10-16T00:05:23;99841.06;;;17.37;100.00
30598;BME280;17365;48.878;8.334;2022-10-16T00:07:48;99842.09;;;17.33;100.00
30598;BME280;17365;48.878;8.334;2022-10-16T00:10:13;99847.81;;;17.45;100.00
30598;BME280;17365;48.878;8.334;2022-10-16T00:12:39;99833.84;;;17.43;100.00
30598;BME280;17365;48.878;8.334;2022-10-16T00:15:05;99834.59;;;17.49;100.00
30598;BME280;17365;48.878;8.334;2022-10-16T00:17:31;99832.56;;;17.58;100.00
30598;BME280;17365;48.878;8.334;2022-10-16T00:19:56;99820.28;;;17.59;100.00
30598;BME280;17365;48.878;8.334;2022-10-16T00:22:22;99821.94;;;17.61;100.00
30598;BME280;17365;48.878;8.334;2022-10-16T00:24:47;99827.19;;;17.61;100.00
30598;BME280;17365;48.878;8.334;2022-10-16T00:27:12;99831.59;;;17.61;100.00
30598;BME280;17365;48.878;8.334;2022-10-16T00:29:37;99828.09;;;17.60;100.00
30598;BME280;17365;48.878;8.334;2022-10-16T00:32:03;99816.81;;;17.58;100.00
30598;BME280;17365;48.878;8.334;2022-10-16T00:34:28;99815.00;;;17.60;100.00
30598;BME280;17365;48.878;8.334;2022-10-16T00:36:53;99825.44;;;17.62;100.00
30598;BME280;17365;48.878;8.334;2022-10-16T00:39:19;99823.59;;;17.64;100.00
30598;BME280;17365;48.878;8.334;2022-10-16T00:41:44;99822.84;;;17.60;100.00
30598;BME280;17365;48.878;8.334;2022-10-16T00:44:48;99819.56;;;17.54;100.00
30598;BME280;17365;48.878;8.334;2022-10-16T00:47:39;99820.41;;;17.54;100.00
30598;BME280;17365;48.878;8.334;2022-10-16T00:50:09;99823.91;;;17.55;100.00
30598;BME280;17365;48.878;8.334;2022-10-16T00:52:39;99835.22;;;17.57;100.00
30598;BME280;17365;48.878;8.334;2022-10-16T00:55:08;99845.84;;;17.52;100.00
30598;BME280;17365;48.878;8.334;2022-10-16T00:57:34;99845.78;;;17.54;100.00
30598;BME280;17365;48.878;8.334;2022-10-16T01:00:00;99846.91;;;17.46;100.00
30598;BME280;17365;48.878;8.334;2022-10-16T01:02:26;99848.72;;;17.44;100.00
30598;BME280;17365;48.878;8.334;2022-10-16T01:04:53;99854.84;;;17.43;100.00
30598;BME280;17365;48.878;8.334;2022-10-16T01:10:31;99842.16;;;17.30;100.00
30598;BME280;17365;48.878;8.334;2022-10-16T01:13:06;99849.06;;;17.32;100.00
30598;BME280;17365;48.878;8.334;2022-10-16T01:15:49;99853.19;;;17.11;100.00
30598;BME280;17365;48.878;8.334;2022-10-16T01:18:33;99847.72;;;17.19;100.00
30598;BME280;17365;48.878;8.334;2022-10-16T01:21:13;99855.56;;;17.19;100.00
30598;BME280;17365;48.878;8.334;2022-10-16T01:27:08;99858.19;;;17.19;100.00
30598;BME280;17365;48.878;8.334;2022-10-16T01:30:07;99860.59;;;17.27;100.00
30598;BME280;17365;48.878;8.334;2022-10-16T01:32:34;99855.72;;;17.14;100.00
30598;BME280;17365;48.878;8.334;2022-10-16T01:35:04;99861.88;;;17.13;100.00
30598;BME280;17365;48.878;8.334;2022-10-16T01:37:56;99851.59;;;17.06;100.00
30598;BME280;17365;48.878;8.334;2022-10-16T01:40:25;99837.59;;;17.07;100.00
30598;BME280;17365;48.878;8.334;2022-10-16T01:43:05;99838.50;;;17.06;100.00
30598;BME280;17365;48.878;8.334;2022-10-16T01:45:33;99837.72;;;17.02;100.00
30598;BME280;17365;48.878;8.334;2022-10-16T01:48:00;99834.31;;;16.99;100.00
30598;BME280;17365;48.878;8.334;2022-10-16T01:50:31;99829.00;;;17.02;100.00
30598;BME280;17365;48.878;8.334;2022-10-16T01:52:58;99820.38;;;16.98;100.00
30598;BME280;17365;48.878;8.334;2022-10-16T01:55:29;99817.94;;;16.92;100.00
30598;BME280;17365;48.878;8.334;2022-10-16T01:57:57;99823.97;;;16.94;100.00
30598;BME280;17365;48.878;8.334;2022-10-16T02:00:26;99821.00;;;16.77;100.00
30598;BME280;17365;48.878;8.334;2022-10-16T02:02:53;99826.97;;;16.82;100.00
30598;BME280;17365;48.878;8.334;2022-10-16T02:07:48;99838.28;;;16.82;100.00
30598;BME280;17365;48.878;8.334;2022-10-16T02:10:14;99842.72;;;16.80;100.00
30598;BME280;17365;48.878;8.334;2022-10-16T02:12:44;99840.56;;;16.62;100.00
30598;BME280;17365;48.878;8.334;2022-10-16T02:15:10;99840.00;;;16.51;100.00
30598;BME280;17365;48.878;8.334;2022-10-16T02:17:36;99848.47;;;16.60;100.00
30598;BME280;17365;48.878;8.334;2022-10-16T02:20:01;99857.06;;;16.33;100.00
30598;BME280;17365;48.878;8.334;2022-10-16T02:22:32;99849.59;;;16.50;100.00
30598;BME280;17365;48.878;8.334;2022-10-16T02:25:06;99850.97;;;16.33;100.00
30598;BME280;17365;48.878;8.334;2022-10-16T02:30:10;99859.00;;;16.59;100.00
30598;BME280;17365;48.878;8.334;2022-10-16T02:32:38;99853.22;;;16.46;100.00
30598;BME280;17365;48.878;8.334;2022-10-16T02:35:07;99853.78;;;16.57;100.00
30598;BME280;17365;48.878;8.334;2022-10-16T02:37:33;99861.31;;;16.37;100.00
30598;BME280;17365;48.878;8.334;2022-10-16T02:39:58;99857.47;;;16.50;100.00
30598;BME280;17365;48.878;8.334;2022-10-16T02:42:42;99862.94;;;16.41;100.00
30598;BME280;17365;48.878;8.334;2022-10-16T02:45:10;99857.38;;;16.55;100.00
30598;BME280;17365;48.878;8.334;2022-10-16T02:47:35;99859.03;;;16.57;100.00
30598;BME280;17365;48.878;8.334;2022-10-16T02:50:00;99864.47;;;16.50;100.00
30598;BME280;17365;48.878;8.334;2022-10-16T02:52:26;99856.53;;;16.53;100.00
30598;BME280;17365;48.878;8.334;2022-10-16T02:54:51;99858.22;;;16.55;100.00
30598;BME280;17365;48.878;8.334;2022-10-16T02:57:17;99866.00;;;16.58;100.00
30598;BME280;17365;48.878;8.334;2022-10-16T02:59:43;99867.91;;;16.52;100.00
30598;BME280;17365;48.878;8.334;2022-10-16T03:02:08;99873.09;;;16.53;100.00
30598;BME280;17365;48.878;8.334;2022-10-16T03:04:34;99877.19;;;16.29;100.00
30598;BME280;17365;48.878;8.334;2022-10-16T03:06:59;99874.75;;;16.23;100.00
30598;BME280;17365;48.878;8.334;2022-10-16T03:09:24;99881.84;;;16.18;100.00
30598;BME280;17365;48.878;8.334;2022-10-16T03:11:50;99873.72;;;16.29;100.00
30598;BME280;17365;48.878;8.334;2022-10-16T03:14:15;99877.09;;;16.34;100.00
30598;BME280;17365;48.878;8.334;2022-10-16T03:16:40;99886.44;;;16.10;100.00
30598;BME280;17365;48.878;8.334;2022-10-16T03:19:07;99883.66;;;16.16;100.00
30598;BME280;17365;48.878;8.334;2022-10-16T03:21:32;99878.19;;;16.25;100.00
30598;BME280;17365;48.878;8.334;2022-10-16T03:23:57;99877.19;;;16.29;100.00
30598;BME280;17365;48.878;8.334;2022-10-16T03:26:22;99880.66;;;16.32;100.00
30598;BME280;17365;48.878;8.334;2022-10-16T03:28:48;99878.16;;;16.27;100.00
30598;BME280;17365;48.878;8.334;2022-10-16T03:31:13;99877.28;;;16.26;100.00
30598;BME280;17365;48.878;8.334;2022-10-16T03:33:38;99882.44;;;16.31;100.00
30598;BME280;17365;48.878;8.334;2022-10-16T03:36:04;99877.16;;;16.33;100.00
30598;BME280;17365;48.878;8.334;2022-10-16T03:38:29;99880.59;;;16.35;100.00
30598;BME280;17365;48.878;8.334;2022-10-16T03:40:54;99886.69;;;16.35;100.00
30598;BME280;17365;48.878;8.334;2022-10-16T03:43:20;99881.31;;;16.40;100.00
30598;BME280;17365;48.878;8.334;2022-10-16T03:45:45;99880.00;;;16.23;100.00
30598;BME280;17365;48.878;8.334;2022-10-16T03:48:10;99880.72;;;16.28;100.00
30598;BME280;17365;48.878;8.334;2022-10-16T03:50:36;99884.19;;;16.29;100.00
30598;BME280;17365;48.878;8.334;2022-10-16T03:53:01;99875.44;;;16.30;100.00
30598;BME280;17365;48.878;8.334;2022-10-16T03:55:26;99877.25;;;16.28;100.00
30598;BME280;17365;48.878;8.334;2022-10-16T03:57:52;99870.25;;;16.28;100.00
30598;BME280;17365;48.878;8.334;2022-10-16T04:00:17;99872.97;;;16.25;100.00
30598;BME280;17365;48.878;8.334;2022-10-16T04:02:42;99871.38;;;16.20;100.00
30598;BME280;17365;48.878;8.334;2022-10-16T04:05:08;99876.78;;;16.12;100.00
30598;BME280;17365;48.878;8.334;2022-10-16T04:07:34;99867.94;;;16.16;100.00
30598;BME280;17365;48.878;8.334;2022-10-16T04:09:59;99881.00;;;16.18;100.00
30598;BME280;17365;48.878;8.334;2022-10-16T04:12:25;99884.47;;;16.20;100.00
30598;BME280;17365;48.878;8.334;2022-10-16T04:14:51;99895.47;;;15.97;100.00
30598;BME280;17365;48.878;8.334;2022-10-16T04:17:16;99894.34;;;15.70;100.00
30598;BME280;17365;48.878;8.334;2022-10-16T04:19:42;99899.13;;;15.90;100.00
30598;BME280;17365;48.878;8.334;2022-10-16T04:22:07;99919.81;;;16.00;100.00
30598;BME280;17365;48.878;8.334;2022-10-16T04:24:32;99920.59;;;16.04;100.00
30598;BME280;17365;48.878;8.334;2022-10-16T04:26:58;99916.97;;;16.08;100.00
30598;BME280;17365;48.878;8.334;2022-10-16T04:29:23;99918.59;;;16.14;100.00
30598;BME280;17365;48.878;8.334;2022-10-16T04:31:48;99924.59;;;16.19;100.00
30598;BME280;17365;48.878;8.334;2022-10-16T04:34:14;99930.66;;;16.19;100.00
30598;BME280;17365;48.878;8.334;2022-10-16T04:36:39;99925.44;;;16.21;100.00
30598;BME280;17365;48.878;8.334;2022-10-16T04:39:04;99933.28;;;16.21;100.00
30598;BME280;17365;48.878;8.334;2022-10-16T04:41:29;99934.41;;;16.11;100.00
30598;BME280;17365;48.878;8.334;2022-10-16T04:43:55;99931.69;;;16.14;100.00
30598;BME280;17365;48.878;8.334;2022-10-16T04:46:20;99924.78;;;16.11;100.00
30598;BME280;17365;48.878;8.334;2022-10-16T04:48:45;99923.03;;;16.12;100.00
30598;BME280;17365;48.878;8.334;2022-10-16T04:51:12;99931.78;;;16.11;100.00
30598;BME280;17365;48.878;8.334;2022-10-16T04:53:37;99929.34;;;16.03;100.00
30598;BME280;17365;48.878;8.334;2022-10-16T04:56:02;99941.50;;;16.04;100.00
30598;BME280;17365;48.878;8.334;2022-10-16T04:58:28;99940.53;;;16.10;100.00
30598;BME280;17365;48.878;8.334;2022-10-16T05:00:53;99937.34;;;15.95;100.00
30598;BME280;17365;48.878;8.334;2022-10-16T05:03:18;99928.97;;;15.81;100.00
30598;BME280;17365;48.878;8.334;2022-10-16T05:05:44;99934.19;;;15.81;100.00
30598;BME280;17365;48.878;8.334;2022-10-16T05:08:11;99946.06;;;15.96;100.00
30598;BME280;17365;48.878;8.334;2022-10-16T05:10:37;99951.13;;;16.04;100.00
30598;BME280;17365;48.878;8.334;2022-10-16T05:13:02;99942.53;;;15.98;100.00
30598;BME280;17365;48.878;8.334;2022-10-16T05:15:28;99939.97;;;15.97;100.00
30598;BME280;17365;48.878;8.334;2022-10-16T05:17:54;99943.34;;;16.00;100.00
30598;BME280;17365;48.878;8.334;2022-10-16T05:20:19;99948.53;;;16.02;100.00
30598;BME280;17365;48.878;8.334;2022-10-16T05:22:44;99959.78;;;16.06;100.00
30598;BME280;17365;48.878;8.334;2022-10-16T05:25:10;99957.38;;;15.96;100.00
30598;BME280;17365;48.878;8.334;2022-10-16T05:27:35;99959.28;;;15.90;100.00
30598;BME280;17365;48.878;8.334;2022-10-16T05:30:00;99961.66;;;16.00;100.00
30598;BME280;17365;48.878;8.334;2022-10-16T05:32:26;99945.16;;;15.98;100.00
30598;BME280;17365;48.878;8.334;2022-10-16T05:34:51;99943.38;;;15.99;100.00
30598;BME280;17365;48.878;8.334;2022-10-16T05:37:17;99949.59;;;15.93;100.00
30598;BME280;17365;48.878;8.334;2022-10-16T05:39:42;99949.66;;;15.92;100.00
30598;BME280;17365;48.878;8.334;2022-10-16T05:42:07;99948.66;;;15.97;100.00
30598;BME280;17365;48.878;8.334;2022-10-16T05:44:33;99947.66;;;16.03;100.00
30598;BME280;17365;48.878;8.334;2022-10-16T05:46:58;99953.78;;;16.02;100.00
30598;BME280;17365;48.878;8.334;2022-10-16T05:49:24;99950.34;;;16.00;100.00
30598;BME280;17365;48.878;8.334;2022-10-16T05:51:49;99948.53;;;16.02;100.00
30598;BME280;17365;48.878;8.334;2022-10-16T05:54:14;99939.88;;;16.00;100.00
30598;BME280;17365;48.878;8.334;2022-10-16T05:56:40;99941.84;;;15.90;100.00
30598;BME280;17365;48.878;8.334;2022-10-16T05:59:05;99955.69;;;15.94;100.00
30598;BME280;17365;48.878;8.334;2022-10-16T06:01:31;99964.44;;;15.93;100.00
30598;BME280;17365;48.878;8.334;2022-10-16T06:03:56;99957.38;;;15.98;100.00
30598;BME280;17365;48.878;8.334;2022-10-16T06:06:23;99966.13;;;15.97;100.00
30598;BME280;17365;48.878;8.334;2022-10-16T06:08:51;99967.75;;;16.01;100.00
30598;BME280;17365;48.878;8.334;2022-10-16T06:11:20;99978.38;;;15.93;100.00
30598;BME280;17365;48.878;8.334;2022-10-16T06:13:49;99984.31;;;16.01;100.00
30598;BME280;17365;48.878;8.334;2022-10-16T06:16:17;99967.84;;;15.98;100.00
30598;BME280;17365;48.878;8.334;2022-10-16T06:18:42;99968.31;;;15.77;100.00
30598;BME280;17365;48.878;8.334;2022-10-16T06:21:14;99955.97;;;15.82;100.00
30598;BME280;17365;48.878;8.334;2022-10-16T06:23:41;99962.66;;;15.95;100.00
30598;BME280;17365;48.878;8.334;2022-10-16T06:26:12;99958.19;;;16.00;100.00
30598;BME280;17365;48.878;8.334;2022-10-16T06:28:38;99977.25;;;16.05;100.00
30598;BME280;17365;48.878;8.334;2022-10-16T06:31:05;99981.47;;;16.12;100.00
30598;BME280;17365;48.878;8.334;2022-10-16T06:33:31;99981.53;;;16.09;100.00
30598;BME280;17365;48.878;8.334;2022-10-16T06:36:01;99984.91;;;16.14;100.00
30598;BME280;17365;48.878;8.334;2022-10-16T06:38:28;99983.91;;;16.20;100.00
30598;BME280;17365;48.878;8.334;2022-10-16T06:40:53;99982.16;;;16.20;100.00
30598;BME280;17365;48.878;8.334;2022-10-16T06:43:19;99977.78;;;16.19;100.00
30598;BME280;17365;48.878;8.334;2022-10-16T06:45:53;99982.16;;;16.20;100.00
30598;BME280;17365;48.878;8.334;2022-10-16T06:48:20;99982.25;;;16.16;100.00
30598;BME280;17365;48.878;8.334;2022-10-16T06:51:19;99971.72;;;16.17;100.00
30598;BME280;17365;48.878;8.334;2022-10-16T06:53:50;99977.69;;;16.24;100.00
30598;BME280;17365;48.878;8.334;2022-10-16T06:56:19;99979.63;;;16.16;100.00
30598;BME280;17365;48.878;8.334;2022-10-16T06:58:44;99989.41;;;16.08;100.00
30598;BME280;17365;48.878;8.334;2022-10-16T07:01:11;99992.94;;;16.05;100.00
30598;BME280;17365;48.878;8.334;2022-10-16T07:03:38;99990.06;;;16.17;100.00
30598;BME280;17365;48.878;8.334;2022-10-16T07:06:05;99995.78;;;16.35;100.00
30598;BME280;17365;48.878;8.334;2022-10-16T07:08:31;99988.41;;;16.50;100.00
30598;BME280;17365;48.878;8.334;2022-10-16T07:11:01;99998.78;;;16.55;100.00
30598;BME280;17365;48.878;8.334;2022-10-16T07:13:27;100002.03;;;16.63;100.00
30598;BME280;17365;48.878;8.334;2022-10-16T07:15:52;100000.44;;;16.57;100.00
30598;BME280;17365;48.878;8.334;2022-10-16T07:18:18;100014.31;;;16.61;100.00
30598;BME280;17365;48.878;8.334;2022-10-16T07:20:43;100017.97;;;16.55;100.00
30598;BME280;17365;48.878;8.334;2022-10-16T07:23:09;100018.66;;;16.62;100.00
30598;BME280;17365;48.878;8.334;2022-10-16T07:25:35;100018.66;;;16.62;100.00
30598;BME280;17365;48.878;8.334;2022-10-16T07:28:00;100016.63;;;16.75;100.00
30598;BME280;17365;48.878;8.334;2022-10-16T07:30:25;100023.63;;;16.74;100.00
30598;BME280;17365;48.878;8.334;2022-10-16T07:32:51;100020.81;;;16.82;100.00
30598;BME280;17365;48.878;8.334;2022-10-16T07:35:16;100028.50;;;16.90;100.00
30598;BME280;17365;48.878;8.334;2022-10-16T07:37:45;100032.63;;;16.98;100.00
30598;BME280;17365;48.878;8.334;2022-10-16T07:40:10;100033.34;;;17.05;100.00
30598;BME280;17365;48.878;8.334;2022-10-16T07:42:36;100038.53;;;17.06;100.00
30598;BME280;17365;48.878;8.334;2022-10-16T07:45:01;100045.31;;;17.15;100.00
30598;BME280;17365;48.878;8.334;2022-10-16T07:47:26;100041.66;;;17.21;100.00
30598;BME280;17365;48.878;8.334;2022-10-16T07:49:52;100053.91;;;17.20;100.00
30598;BME280;17365;48.878;8.334;2022-10-16T07:52:17;100059.72;;;17.31;100.00
30598;BME280;17365;48.878;8.334;2022-10-16T07:54:42;100062.72;;;17.17;100.00
30598;BME280;17365;48.878;8.334;2022-10-16T07:57:08;100059.91;;;17.25;100.00
30598;BME280;17365;48.878;8.334;2022-10-16T07:59:33;100071.16;;;17.29;100.00
30598;BME280;17365;48.878;8.334;2022-10-16T08:01:58;100075.44;;;17.33;100.00
30598;BME280;17365;48.878;8.334;2022-10-16T08:04:24;100082.53;;;16.94;100.00
30598;BME280;17365;48.878;8.334;2022-10-16T08:06:49;100080.69;;;17.33;100.00
30598;BME280;17365;48.878;8.334;2022-10-16T08:09:15;100079.56;;;17.41;100.00
30598;BME280;17365;48.878;8.334;2022-10-16T08:11:40;100070.88;;;17.39;100.00
30598;BME280;17365;48.878;8.334;2022-10-16T08:14:05;100066.28;;;17.48;100.00
30598;BME280;17365;48.878;8.334;2022-10-16T08:16:30;100066.88;;;17.59;100.00
30598;BME280;17365;48.878;8.334;2022-10-16T08:18:56;100065.69;;;17.70;100.00
30598;BME280;17365;48.878;8.334;2022-10-16T08:21:23;100058.81;;;17.65;100.00
30598;BME280;17365;48.878;8.334;2022-10-16T08:23:49;100058.50;;;17.77;100.00
30598;BME280;17365;48.878;8.334;2022-10-16T08:26:15;100062.63;;;17.86;100.00
30598;BME280;17365;48.878;8.334;2022-10-16T08:28:40;100066.00;;;17.89;100.00
30598;BME280;17365;48.878;8.334;2022-10-16T08:31:07;100057.53;;;17.81;100.00
30598;BME280;17365;48.878;8.334;2022-10-16T08:33:33;100059.69;;;17.96;100.00
30598;BME280;17365;48.878;8.334;2022-10-16T08:36:00;100069.78;;;18.10;100.00
30598;BME280;17365;48.878;8.334;2022-10-16T08:38:25;100072.72;;;17.99;100.00
30598;BME280;17365;48.878;8.334;2022-10-16T08:40:51;100073.25;;;18.12;100.00
30598;BME280;17365;48.878;8.334;2022-10-16T08:46:16;100092.53;;;18.10;100.00
30598;BME280;17365;48.878;8.334;2022-10-16T08:48:49;100093.88;;;18.24;100.00
30598;BME280;17365;48.878;8.334;2022-10-16T08:51:27;100096.19;;;18.33;100.00
30598;BME280;17365;48.878;8.334;2022-10-16T08:53:59;100109.47;;;18.29;100.00
30598;BME280;17365;48.878;8.334;2022-10-16T08:56:26;100109.31;;;18.65;100.00
30598;BME280;17365;48.878;8.334;2022-10-16T08:58:53;100107.50;;;18.37;100.00
30598;BME280;17365;48.878;8.334;2022-10-16T09:01:20;100107.78;;;18.56;100.00
30598;BME280;17365;48.878;8.334;2022-10-16T09:04:21;100112.56;;;18.73;100.00
30598;BME280;17365;48.878;8.334;2022-10-16T09:09:49;100135.19;;;18.77;100.00
30598;BME280;17365;48.878;8.334;2022-10-16T09:12:28;100141.50;;;18.42;100.00
30598;BME280;17365;48.878;8.334;2022-10-16T09:15:07;100135.28;;;18.44;100.00
30598;BME280;17365;48.878;8.334;2022-10-16T09:17:43;100153.34;;;18.55;100.00
30598;BME280;17365;48.878;8.334;2022-10-16T09:21:18;100148.84;;;18.88;100.00
30598;BME280;17365;48.878;8.334;2022-10-16T09:23:19;100150.44;;;18.94;100.00
30598;BME280;17365;48.878;8.334;2022-10-16T09:25:47;100148.75;;;18.91;100.00
30598;BME280;17365;48.878;8.334;2022-10-16T09:28:15;100152.19;;;18.65;100.00
30598;BME280;17365;48.878;8.334;2022-10-16T09:30:41;100164.44;;;18.94;100.00
30598;BME280;17365;48.878;8.334;2022-10-16T09:33:09;100170.13;;;19.08;100.00
30598;BME280;17365;48.878;8.334;2022-10-16T09:35:36;100170.47;;;18.70;100.00
30598;BME280;17365;48.878;8.334;2022-10-16T09:38:03;100168.50;;;19.04;99.82
30598;BME280;17365;48.878;8.334;2022-10-16T09:40:31;100165.09;;;19.01;99.84
30598;BME280;17365;48.878;8.334;2022-10-16T09:43:17;100172.28;;;18.96;99.36
30598;BME280;17365;48.878;8.334;2022-10-16T09:46:03;100176.34;;;19.06;98.37
30598;BME280;17365;48.878;8.334;2022-10-16T09:48:48;100183.03;;;18.88;100.00
30598;BME280;17365;48.878;8.334;2022-10-16T09:51:20;100186.28;;;18.96;98.34
30598;BME280;17365;48.878;8.334;2022-10-16T09:53:47;100190.13;;;19.12;99.30
30598;BME280;17365;48.878;8.334;2022-10-16T09:56:24;100185.44;;;19.22;98.37
30598;BME280;17365;48.878;8.334;2022-10-16T09:58:53;100193.94;;;19.04;97.64
30598;BME280;17365;48.878;8.334;2022-10-16T10:01:19;100195.06;;;19.23;97.65
30598;BME280;17365;48.878;8.334;2022-10-16T10:03:45;100189.38;;;19.37;96.82
30598;BME280;17365;48.878;8.334;2022-10-16T10:06:25;100188.69;;;19.30;97.26
30598;BME280;17365;48.878;8.334;2022-10-16T10:08:56;100192.81;;;19.65;96.11
30598;BME280;17365;48.878;8.334;2022-10-16T10:11:43;100190.84;;;19.72;94.18
30598;BME280;17365;48.878;8.334;2022-10-16T10:14:17;100189.00;;;19.74;93.94
30598;BME280;17365;48.878;8.334;2022-10-16T10:16:42;100193.25;;;19.78;94.17
30598;BME280;17365;48.878;8.334;2022-10-16T10:19:15;100194.69;;;19.87;92.90
30598;BME280;17365;48.878;8.334;2022-10-16T10:21:40;100200.44;;;19.98;92.88
30598;BME280;17365;48.878;8.334;2022-10-16T10:24:10;100199.09;;;20.11;92.68
30598;BME280;17365;48.878;8.334;2022-10-16T10:26:35;100202.66;;;20.10;92.32
30598;BME280;17365;48.878;8.334;2022-10-16T10:35:34;100197.06;;;19.94;91.65
30598;BME280;17365;48.878;8.334;2022-10-16T10:38:00;100201.38;;;19.97;91.85
30598;BME280;17365;48.878;8.334;2022-10-16T10:45:55;100194.09;;;20.28;89.51
30598;BME280;17365;48.878;8.334;2022-10-16T10:48:38;100189.28;;;20.40;89.00
30598;BME280;17365;48.878;8.334;2022-10-16T10:51:13;100192.94;;;20.59;88.16
30598;BME280;17365;48.878;8.334;2022-10-16T11:04:26;100207.72;;;20.86;85.52
30598;BME280;17365;48.878;8.334;2022-10-16T11:07:00;100202.13;;;20.94;84.76
30598;BME280;17365;48.878;8.334;2022-10-16T11:09:33;100198.44;;;20.76;82.90
30598;BME280;17365;48.878;8.334;2022-10-16T11:12:03;100197.84;;;20.91;82.74
30598;BME280;17365;48.878;8.334;2022-10-16T11:14:38;100191.59;;;20.94;82.71
30598;BME280;17365;48.878;8.334;2022-10-16T11:17:19;100202.03;;;21.19;81.94
30598;BME280;17365;48.878;8.334;2022-10-16T11:20:12;100198.72;;;21.14;79.13
30598;BME280;17365;48.878;8.334;2022-10-16T11:22:43;100196.78;;;21.41;80.66
30598;BME280;17365;48.878;8.334;2022-10-16T11:25:24;100184.50;;;21.60;79.24
30598;BME280;17365;48.878;8.334;2022-10-16T11:28:14;100178.63;;;21.74;78.44
30598;BME280;17365;48.878;8.334;2022-10-16T11:31:00;100178.91;;;21.68;76.08
30598;BME280;17365;48.878;8.334;2022-10-16T11:33:36;100172.47;;;21.94;77.45
30598;BME280;17365;48.878;8.334;2022-10-16T11:38:48;100161.47;;;21.84;75.63
30598;BME280;17365;48.878;8.334;2022-10-16T11:41:27;100160.41;;;21.88;76.43
30598;BME280;17365;48.878;8.334;2022-10-16T11:44:16;100157.00;;;22.05;76.07
30598;BME280;17365;48.878;8.334;2022-10-16T11:47:10;100156.16;;;22.04;76.09
30598;BME280;17365;48.878;8.334;2022-10-16T11:49:37;100166.00;;;22.01;77.41
30598;BME280;17365;48.878;8.334;2022-10-16T11:52:13;100175.47;;;21.86;75.65
30598;BME280;17365;48.878;8.334;2022-10-16T11:57:32;100182.78;;;21.59;77.25
30598;BME280;17365;48.878;8.334;2022-10-16T12:03:08;100180.00;;;22.03;76.33
30598;BME280;17365;48.878;8.334;2022-10-16T12:05:57;100169.06;;;22.12;75.60
30598;BME280;17365;48.878;8.334;2022-10-16T12:08:26;100171.78;;;22.11;76.50
30598;BME280;17365;48.878;8.334;2022-10-16T12:10:52;100166.13;;;22.18;75.61
30598;BME280;17365;48.878;8.334;2022-10-16T12:18:36;100161.84;;;21.95;75.78
30598;BME280;17365;48.878;8.334;2022-10-16T12:21:02;100164.16;;;22.03;75.91
30598;BME280;17365;48.878;8.334;2022-10-16T12:23:33;100168.91;;;21.74;75.75
30598;BME280;17365;48.878;8.334;2022-10-16T12:26:01;100159.25;;;21.75;76.14
30598;BME280;17365;48.878;8.334;2022-10-16T12:28:29;100166.09;;;21.79;76.90
30598;BME280;17365;48.878;8.334;2022-10-16T12:30:59;100168.19;;;21.91;76.49
30598;BME280;17365;48.878;8.334;2022-10-16T12:33:29;100160.81;;;21.99;76.11
30598;BME280;17365;48.878;8.334;2022-10-16T12:35:55;100159.88;;;22.00;77.07
30598;BME280;17365;48.878;8.334;2022-10-16T12:38:25;100152.59;;;22.05;76.75
30598;BME280;17365;48.878;8.334;2022-10-16T12:40:59;100154.94;;;22.13;75.67
30598;BME280;17365;48.878;8.334;2022-10-16T12:43:27;100152.81;;;22.21;75.19
30598;BME280;17365;48.878;8.334;2022-10-16T12:48:34;100157.88;;;22.26;74.89
30598;BME280;17365;48.878;8.334;2022-10-16T12:54:29;100157.16;;;22.02;76.62
30598;BME280;17365;48.878;8.334;2022-10-16T12:56:55;100164.84;;;21.88;76.93
30598;BME280;17365;48.878;8.334;2022-10-16T12:59:38;100170.19;;;21.86;78.34
30598;BME280;17365;48.878;8.334;2022-10-16T13:07:32;100158.44;;;21.73;78.42
30598;BME280;17365;48.878;8.334;2022-10-16T13:14:12;100175.38;;;21.47;79.01
30598;BME280;17365;48.878;8.334;2022-10-16T13:19:32;100164.13;;;21.64;78.32
30598;BME280;17365;48.878;8.334;2022-10-16T13:22:06;100162.66;;;21.77;77.36
30598;BME280;17365;48.878;8.334;2022-10-16T13:30:30;100151.81;;;21.83;77.23
30598;BME280;17365;48.878;8.334;2022-10-16T13:35:36;100142.19;;;21.82;78.14
30598;BME280;17365;48.878;8.334;2022-10-16T13:40:36;100147.75;;;21.76;79.55
30598;BME280;17365;48.878;8.334;2022-10-16T13:43:02;100153.22;;;21.71;80.43
30598;BME280;17365;48.878;8.334;2022-10-16T13:45:27;100155.84;;;21.71;80.85
30598;BME280;17365;48.878;8.334;2022-10-16T13:48:06;100158.69;;;21.25;81.97
30598;BME280;17365;48.878;8.334;2022-10-16T13:50:34;100160.34;;;21.49;81.25
30598;BME280;17365;48.878;8.334;2022-10-16T13:53:04;100162.41;;;21.42;81.36
30598;BME280;17365;48.878;8.334;2022-10-16T13:55:30;100165.75;;;21.24;81.22
30598;BME280;17365;48.878;8.334;2022-10-16T13:58:05;100161.31;;;21.26;81.66
30598;BME280;17365;48.878;8.334;2022-10-16T14:00:32;100163.00;;;21.27;81.74
30598;BME280;17365;48.878;8.334;2022-10-16T14:03:04;100160.22;;;21.32;81.50
30598;BME280;17365;48.878;8.334;2022-10-16T14:05:30;100163.34;;;21.40;81.51
30598;BME280;17365;48.878;8.334;2022-10-16T14:10:30;100159.75;;;21.42;82.85
30598;BME280;17365;48.878;8.334;2022-10-16T14:13:01;100161.00;;;21.74;81.46
30598;BME280;17365;48.878;8.334;2022-10-16T14:15:29;100166.94;;;21.79;81.05
30598;BME280;17365;48.878;8.334;2022-10-16T14:17:55;100156.25;;;21.83;80.14
30598;BME280;17365;48.878;8.334;2022-10-16T14:20:25;100149.06;;;22.06;78.64
30598;BME280;17365;48.878;8.334;2022-10-16T14:22:59;100150.56;;;21.92;78.55